Terminal Aerodrome Forecast
Issued by NWS Charleston, WV

Current Version | Previous Version | Graphics & Text | Print | Product List | Glossary On
Versions: 1 2 3 4 5 6 7 8 9 10 11 12 13 14 15 16 17 18 19 20 21 22 23 24 25
000
FTUS41 KRLX 272343
TAFEKN
TAF
KEKN 272343Z 2800/2824 00000KT P6SM FEW050
     FM280300 00000KT P6SM SCT250
     FM280500 00000KT 6SM BR SCT250
     FM280700 00000KT 3SM BR SCT250
     FM280800 00000KT 1/4SM FG VV001
     FM281300 00000KT 1SM BR SCT003
     FM281400 00000KT 4SM BR SCT006
     FM281500 00000KT P6SM SCT015=

USA.gov is the U.S. government's official web portal to all federal, state and local government web resources and services.